Forside
METAR-TAF:

METAR-TAF

Lufthavne :

Herat, Afghanistan

Breddekreds: 34-13N, længdekreds: 062-13E, højde: 964 m

Aktuelle vejr

Denne rapport blev lavet for 53 minutter siden, kl. 14:55 UTC
Vind stille
Temperatur 7°C
Fugtighed 49%
Tryk 1022 hPa
Sigt 10 km eller mere
ingen skyer under 1500m og ingen cumulonimbus

METAR: OAHR 111455Z 00000KT CAVOK 07/M03 Q1022 RMK A3020 BLU

Tid: 20:18 (15:48 UTC)

Vejrudsigter

Denne rapport blev lavet for 4 timer og 48 minutter siden, kl. 11:00 UTC
Foreløbig gælder fra 11 på 12 UTC til 12 på 12 UTC
Vind 8 kt fra vestnordvest
Sigt 10 km eller mere
Nogle få skyer i en højde af 4000 ft
ændring
fra 11 på 15 UTC til 11 på 17 UTC
Vind 6 kt fra syd
Sigt 10 km eller mere
ingen skyer under 1500m og ingen cumulonimbus
ændring
fra 12 på 05 UTC til 12 på 07 UTC
Vind 8 kt fra vestnordvest

TAF: OAHR 111100Z 1112/1212 29008KT 9999 FEW040 BECMG 1115/1117 17006KT CAVOK BECMG 1205/1207 29008KT

Vejrobservationer og prognoser fra mere end 4000 lufthavne (METAR og TAF).

De gule og røde prikker repræsenterer de meteorologiske stationer.

Flyt musen over at se navnet på stationen.

Så klik over at se vejr observationer og prognoser.

At skifte det kort: Klik på de grønne knapper med et sort kors for at zoome ind; på den grønne knap med en bindestreg for at zoome ud; eller på de grønne pile for tilstødende kort.


METAR-TAF: